Date,TemperatureHighF,TemperatureAvgF,TemperatureLowF,DewpointHighF,DewpointAvgF,DewpointLowF,HumidityHigh,HumidityAvg,HumidityLow,PressureMaxIn,PressureMinIn,WindSpeedMaxMPH,WindSpeedAvgMPH,GustSpeedMaxMPH,PrecipitationSumIn
2014-1-1,52,30,18,33,23,16,97,81,32,30.42,30.16,5,0,5,0.00
2014-1-2,38,30,18,37,28,13,97,92,76,30.17,29.73,15,1,15,0.17
2014-1-3,22,15,11,15,9,6,92,78,55,30.50,30.02,14,2,14,0.00
2014-1-4,45,25,12,24,16,9,92,73,39,30.49,30.26,4,0,4,0.00
2014-1-5,60,40,21,49,36,18,96,85,63,30.26,29.61,12,1,15,0.00
2014-1-6,53,20,-1,48,15,-9,95,80,61,30.33,29.56,15,5,17,0.16
2014-1-7,11,2,-5,2,-4,-12,88,73,63,30.64,30.33,14,3,14,0.00
2014-1-8,36,16,0,20,9,-2,91,76,40,30.74,30.59,9,1,9,0.00
2014-1-9,54,33,19,31,21,12,93,67,24,30.61,30.40,8,0,9,0.01
2014-1-10,52,41,35,49,38,24,98,89,64,30.44,30.01,4,0,4,0.08
2014-1-11,63,51,42,55,47,33,99,87,67,30.01,29.57,19,2,19,0.73
2014-1-12,49,37,25,37,31,24,95,79,52,30.16,29.82,12,2,12,0.00
2014-1-13,50,36,21,40,31,20,97,82,56,30.16,29.90,12,0,12,0.00
2014-1-14,50,40,26,42,37,25,98,88,59,29.98,29.80,12,1,12,0.21
2014-1-15,34,29,24,32,28,19,97,92,77,30.07,29.94,7,0,7,0.01
2014-1-16,35,25,14,25,19,12,93,77,46,30.11,29.94,9,1,9,0.00
2014-1-17,46,34,26,30,24,19,89,69,37,30.02,29.80,16,2,17,0.03
2014-1-18,29,22,14,21,15,6,88,74,62,30.12,29.97,12,2,12,0.00
2014-1-19,40,31,22,30,25,18,94,79,62,30.07,29.96,12,2,12,0.00
2014-1-20,52,37,24,30,26,21,92,67,41,30.01,29.85,13,2,14,0.00
2014-1-21,42,27,15,34,24,11,95,88,71,30.00,29.65,12,1,12,0.01
2014-1-22,21,14,6,11,5,0,85,67,51,30.19,29.99,11,2,11,0.00
2014-1-23,25,17,5,14,7,-3,82,66,49,30.59,30.17,13,3,15,0.00
2014-1-24,22,8,-2,3,-1,-6,87,68,37,30.69,30.26,10,1,11,0.00
2014-1-25,27,20,3,21,12,0,91,74,36,30.25,29.80,17,4,17,0.00
2014-1-26,48,31,8,32,19,2,80,61,43,30.01,29.82,18,2,18,0.00
2014-1-27,41,31,16,36,21,2,88,69,38,30.24,29.84,9,1,9,0.00
2014-1-28,19,15,12,13,8,-2,89,74,48,30.37,30.24,4,0,6,0.00
2014-1-29,20,7,-11,8,0,-14,88,74,45,30.49,30.30,7,1,8,0.00
2014-1-30,39,14,-7,18,5,-10,89,71,29,30.50,30.24,4,0,4,0.01
2014-1-31,44,27,13,23,17,11,92,71,32,30.33,30.22,10,1,10,0.00
2014-2-1,67,39,22,36,27,20,94,69,26,30.26,30.01,3,0,4,0.00
2014-2-2,49,37,24,48,36,23,98,93,76,30.14,29.98,6,0,6,0.02
2014-2-3,45,38,28,44,37,27,98,96,90,30.27,29.82,9,0,10,1.24
2014-2-4,47,37,28,43,35,27,98,92,80,30.34,29.95,6,0,10,0.10
2014-2-5,51,39,26,47,36,21,99,88,69,30.23,29.77,19,3,19,0.17
2014-2-6,34,28,23,24,21,18,86,75,61,30.40,30.22,10,1,10,0.00
2014-2-7,38,29,22,26,23,20,93,78,56,30.42,30.30,8,1,8,0.00
2014-2-8,39,32,24,33,28,22,94,87,72,30.31,30.18,7,0,7,0.00
2014-2-9,40,36,33,37,34,32,97,91,84,30.23,30.04,7,1,12,0.00
2014-2-10,33,29,21,32,26,19,97,88,78,30.30,30.11,4,0,4,0.02
2014-2-11,40,26,18,23,18,10,94,74,31,30.38,30.29,4,0,4,0.00
2014-2-12,30,23,19,23,18,16,94,82,56,30.36,29.96,4,0,4,0.00
2014-2-13,33,28,20,30,26,18,95,92,86,29.96,29.73,10,1,10,0.00
2014-2-14,45,33,15,34,28,13,96,81,57,29.91,29.67,13,1,13,0.41
2014-2-15,34,27,16,33,23,13,97,83,61,30.14,29.62,11,2,11,0.04
2014-2-16,42,31,19,31,25,16,94,81,63,30.25,30.11,11,1,11,0.06
2014-2-17,50,34,17,37,26,15,96,76,45,30.33,30.05,19,1,19,0.02
2014-2-18,56,41,30,38,31,24,93,71,30,30.27,30.04,7,2,10,0.00
2014-2-19,64,47,33,53,40,30,98,79,40,30.09,29.92,19,2,19,0.53
2014-2-20,71,56,36,53,44,33,92,68,48,30.11,29.76,24,3,24,0.00
2014-2-21,66,49,32,54,39,24,96,69,36,30.05,29.62,23,4,24,0.59
2014-2-22,60,40,26,33,26,16,95,63,20,30.23,30.05,11,1,11,0.00
2014-2-23,62,43,24,37,29,22,94,63,30,30.12,29.92,16,1,16,0.00
2014-2-24,47,36,22,36,23,12,88,64,27,30.18,30.00,13,2,13,0.00
2014-2-25,41,31,21,24,20,12,91,67,36,30.15,30.02,12,1,12,0.00
2014-2-26,34,27,16,25,19,13,90,73,51,30.06,29.89,6,1,9,0.00
2014-2-27,38,25,16,14,10,6,84,56,30,30.09,29.91,13,3,17,0.00
2014-2-28,51,30,12,20,15,9,91,59,27,30.27,30.09,8,1,10,0.00
2014-3-1,57,38,25,33,26,18,90,63,38,30.33,30.15,11,1,11,0.00
2014-3-2,60,50,34,51,44,32,98,81,62,30.24,29.86,7,1,14,0.40
2014-3-3,52,33,20,51,31,18,97,94,88,30.28,29.82,6,0,6,0.52
2014-3-4,42,27,15,32,22,13,96,84,55,30.31,30.17,5,0,5,0.19
2014-3-5,58,42,26,37,30,25,97,68,34,30.24,30.10,6,1,6,0.00
2014-3-6,48,36,26,30,26,23,94,68,41,30.30,30.11,5,1,8,0.00
2014-3-7,54,38,28,42,33,27,95,82,60,30.12,29.94,6,1,6,0.05
2014-3-8,62,42,26,43,32,25,97,73,33,30.16,30.00,9,2,13,0.00
2014-3-9,59,47,33,39,34,27,91,63,37,30.14,30.01,12,2,12,0.00
2014-3-10,60,44,28,43,35,25,89,72,52,30.07,29.86,14,2,15,0.00
2014-3-11,68,47,28,46,36,27,97,72,30,29.91,29.70,14,2,15,0.00
2014-3-12,61,44,29,56,40,25,97,86,73,29.79,29.26,14,3,24,0.16
2014-3-13,38,29,22,25,15,7,90,60,31,30.28,29.79,15,3,16,0.01
2014-3-14,59,39,18,31,22,15,91,58,31,30.35,30.04,10,1,10,0.00
2014-3-15,65,52,34,39,32,24,82,50,22,30.05,29.95,15,3,15,0.00
2014-3-16,50,40,32,40,35,28,92,82,56,30.05,29.77,12,0,13,0.14
2014-3-17,36,33,31,34,32,29,95,93,90,29.94,29.74,5,1,5,0.16
2014-3-18,57,39,30,46,35,28,95,85,62,30.08,29.94,6,1,7,0.00
2014-3-19,66,49,31,49,41,30,98,75,48,30.10,29.85,23,3,23,0.00
2014-3-20,57,47,29,45,31,17,87,59,22,30.10,29.95,13,2,13,0.00
2014-3-21,66,43,23,34,26,16,95,59,16,30.20,29.99,12,1,12,0.00
2014-3-22,65,50,31,43,36,28,91,62,38,30.03,29.94,12,2,12,0.00
2014-3-23,48,40,32,39,33,23,95,78,44,30.22,30.00,11,1,11,0.01
2014-3-24,48,32,16,23,18,12,93,61,27,30.31,30.08,9,1,9,0.00
2014-3-25,36,30,25,31,26,16,94,82,68,30.14,29.89,14,2,15,0.12
2014-3-26,41,28,20,21,16,11,87,63,34,30.35,30.14,12,2,12,0.01
2014-3-27,60,40,19,27,21,16,91,54,21,30.40,30.15,17,2,17,0.00
2014-3-28,64,56,50,52,44,26,92,65,36,30.15,29.99,14,2,17,0.00
2014-3-29,65,51,35,56,48,32,97,90,70,30.05,29.57,12,1,13,0.67
2014-3-30,47,36,30,36,31,28,95,83,56,30.20,29.87,9,3,12,0.03
2014-3-31,68,44,24,40,31,22,96,67,28,30.29,30.09,4,0,6,0.00
2014-4-1,75,53,35,46,40,33,95,67,30,30.18,30.00,14,1,14,0.00
2014-4-2,77,57,34,53,45,33,97,70,39,30.13,29.98,12,1,13,0.00
2014-4-3,79,61,45,62,54,43,96,80,51,30.05,29.79,3,0,4,0.10
2014-4-4,67,59,48,59,54,46,98,85,63,29.88,29.64,16,2,16,0.07
2014-4-5,58,47,35,53,36,31,89,68,40,30.11,29.82,10,1,10,0.00
2014-4-6,65,48,31,43,35,28,94,65,35,30.16,29.99,10,1,10,0.00
2014-4-7,66,54,43,56,49,40,97,85,67,30.04,29.53,16,2,16,0.87
2014-4-8,59,50,45,54,42,36,88,74,53,29.75,29.56,17,2,18,0.04
2014-4-9,60,46,34,46,38,31,97,75,36,30.15,29.75,16,1,16,0.02
2014-4-10,71,49,28,43,35,27,96,66,28,30.28,30.08,12,1,12,0.00
2014-4-11,72,55,39,48,42,36,95,64,30,30.19,30.01,18,2,18,0.00
2014-4-12,80,63,43,57,48,41,95,63,35,30.22,30.01,12,1,12,0.00
2014-4-13,84,67,45,59,50,42,93,59,35,30.09,29.89,14,2,14,0.00
2014-4-14,72,66,63,59,55,52,83,67,51,29.91,29.68,17,3,17,0.00
2014-4-15,63,45,30,58,41,22,96,87,70,30.13,29.54,11,2,11,0.32
2014-4-16,60,40,21,35,24,19,95,59,28,30.43,30.13,10,1,10,0.00
2014-4-17,68,47,26,41,29,22,91,54,25,30.49,30.31,13,1,13,0.00
2014-4-18,61,46,33,43,36,28,90,68,43,30.40,30.23,3,0,3,0.00
2014-4-19,70,57,46,47,41,38,81,59,35,30.20,30.10,10,1,10,0.00
2014-4-20,75,55,35,47,39,34,96,60,27,30.29,30.13,6,1,6,0.00
2014-4-21,76,55,34,47,40,31,93,62,31,30.17,29.91,11,1,11,0.00
2014-4-22,66,56,44,59,52,42,96,87,65,29.90,29.71,3,0,6,0.16
2014-4-23,66,52,38,52,34,27,97,54,25,30.03,29.78,11,2,12,0.00
2014-4-24,76,54,30,49,36,28,95,57,20,30.10,29.89,10,1,11,0.00
2014-4-25,66,58,51,60,51,39,93,78,46,29.94,29.67,15,2,16,0.42
2014-4-26,75,56,38,51,44,37,98,68,31,30.03,29.91,12,2,12,0.00
2014-4-27,84,61,38,60,46,37,97,66,28,30.04,29.84,5,0,5,0.00
2014-4-28,79,64,56,68,58,52,96,83,52,29.89,29.70,12,0,12,0.12
2014-4-29,74,65,55,61,58,54,98,79,61,29.87,29.67,16,2,16,0.25
2014-4-30,77,67,56,62,57,54,95,72,51,29.86,29.68,19,2,19,0.65
2014-5-1,64,56,46,55,48,39,98,76,42,29.91,29.81,13,2,14,0.00
2014-5-2,64,50,37,45,41,35,97,72,41,29.97,29.86,11,1,11,0.00
2014-5-3,68,56,42,48,44,40,95,67,43,29.96,29.86,13,2,13,0.00
2014-5-4,79,61,42,53,46,39,94,61,32,30.03,29.85,13,2,13,0.00
2014-5-5,82,64,44,58,51,42,97,67,37,29.99,29.78,13,2,14,0.00
2014-5-6,81,69,54,57,54,51,90,61,37,29.91,29.81,12,2,12,0.00
2014-5-7,86,66,48,62,53,46,98,69,27,30.08,29.90,6,0,6,0.00
2014-5-8,84,66,48,60,53,46,98,70,30,30.17,30.02,12,1,12,0.00
2014-5-9,82,65,48,62,55,47,97,74,42,30.09,29.95,10,1,10,0.00
2014-5-10,70,62,54,63,59,53,97,91,72,30.06,29.97,7,0,7,0.29
2014-5-11,82,66,54,65,58,52,98,80,40,30.16,30.02,6,0,6,0.01
2014-5-12,86,69,53,68,60,52,98,77,46,30.16,30.03,7,1,7,0.00
2014-5-13,88,68,57,73,63,56,98,86,46,30.11,29.97,6,0,7,0.27
2014-5-14,85,70,58,69,60,52,99,74,39,30.09,29.90,14,1,14,0.00
2014-5-15,71,60,47,67,58,47,98,93,65,29.99,29.79,13,1,13,2.30
2014-5-16,62,49,38,48,44,37,98,85,55,30.11,29.94,15,1,15,0.08
2014-5-17,56,47,35,48,42,34,98,84,58,30.23,30.10,8,1,8,0.01
2014-5-18,67,53,40,47,42,34,97,73,31,30.27,30.14,5,0,6,0.00
2014-5-19,71,53,36,51,42,35,98,72,31,30.31,30.17,7,0,7,0.00
2014-5-20,75,58,41,62,51,40,98,81,55,30.27,30.05,8,1,11,0.00
2014-5-21,78,65,50,64,58,49,98,81,59,30.10,29.94,10,1,10,0.00
2014-5-22,79,68,60,68,63,59,97,84,65,30.01,29.90,8,1,8,0.42
2014-5-23,76,66,52,64,58,49,97,77,46,30.04,29.94,7,1,7,0.00
2014-5-24,79,59,43,58,50,42,98,75,42,30.16,30.04,6,0,6,0.00
2014-5-25,78,61,46,60,52,45,98,76,37,30.17,30.08,7,0,7,0.00
2014-5-26,81,65,49,67,58,48,98,80,54,30.17,30.02,7,1,7,0.00
2014-5-27,75,64,55,68,62,54,98,91,74,30.09,29.97,6,0,6,0.19
2014-5-28,83,68,55,70,63,54,99,84,54,30.04,29.92,5,0,5,0.00
2014-5-29,85,68,57,70,64,56,98,87,52,30.03,29.95,6,0,6,0.12
2014-5-30,83,70,59,72,64,58,98,84,58,30.05,29.94,4,0,4,0.00
2014-5-31,86,70,58,68,61,57,98,78,44,30.10,29.99,8,0,9,0.00
2014-6-1,79,66,54,63,58,53,97,79,57,30.21,30.10,8,1,9,0.00
2014-6-2,84,67,52,68,59,51,97,76,49,30.20,30.01,6,0,7,0.00
2014-6-3,73,65,57,67,61,55,97,89,78,30.08,29.95,7,0,7,0.03
2014-6-4,84,70,57,70,64,57,99,82,53,29.97,29.71,8,1,9,0.00
2014-6-5,77,70,61,70,65,59,95,85,68,29.86,29.68,7,1,8,0.07
2014-6-6,81,65,52,62,56,50,98,75,38,29.94,29.84,5,0,5,0.00
2014-6-7,84,68,51,68,60,50,97,77,52,30.00,29.85,7,1,7,0.00
2014-6-8,82,72,62,71,65,60,96,78,57,29.88,29.76,9,1,9,0.03
2014-6-9,81,70,60,65,62,58,95,76,50,29.88,29.78,7,1,7,0.00
2014-6-10,85,70,58,70,63,57,98,81,51,29.93,29.78,11,1,11,0.64
2014-6-11,84,72,62,69,64,61,98,77,51,29.89,29.72,12,1,14,0.01
2014-6-12,80,69,63,69,64,62,97,85,64,29.83,29.76,9,1,9,0.05
2014-6-13,79,69,63,67,64,61,98,85,57,29.90,29.78,8,0,9,0.51
2014-6-14,82,67,55,66,58,52,98,77,40,30.04,29.90,5,0,5,0.01
2014-6-15,86,69,52,69,60,51,97,76,42,30.15,30.01,3,0,6,0.00
2014-6-16,87,73,62,72,66,61,97,81,55,30.15,30.03,3,0,6,0.00
2014-6-17,86,73,59,71,65,58,98,79,52,30.16,30.02,7,1,9,0.00
2014-6-18,87,72,58,73,66,57,98,83,55,30.12,29.98,6,0,6,0.00
2014-6-19,84,70,60,73,66,60,98,89,66,30.10,30.00,7,0,7,0.65
2014-6-20,82,68,61,73,66,60,98,94,71,30.07,29.93,7,0,7,0.37
2014-6-21,82,69,63,74,66,63,99,92,70,29.94,29.81,5,0,5,0.30
2014-6-22,84,72,63,71,65,62,98,82,54,29.91,29.81,4,0,4,0.00
2014-6-23,88,72,60,75,66,60,99,81,51,30.02,29.90,8,0,8,0.00
2014-6-24,86,74,65,70,66,63,96,79,51,30.02,29.89,11,1,11,0.00
2014-6-25,78,70,64,73,67,62,97,92,77,29.96,29.88,7,0,7,0.12
2014-6-26,84,73,64,69,66,62,98,80,54,30.00,29.87,5,0,5,0.00
2014-6-27,87,72,63,73,67,62,97,83,50,30.04,29.94,5,0,5,0.00
2014-6-28,82,72,65,74,67,63,97,84,64,30.14,30.04,6,0,7,0.00
2014-6-29,84,72,66,73,68,65,97,88,62,30.14,30.02,6,0,6,0.39
2014-6-30,79,70,63,72,67,63,98,90,69,30.06,29.90,6,0,6,0.07
2014-7-1,85,74,63,73,68,62,98,85,62,29.94,29.81,7,1,8,0.00
2014-7-2,88,76,66,73,68,65,98,80,50,29.91,29.84,8,1,8,0.00
2014-7-3,82,71,60,73,66,58,97,86,67,30.00,29.87,5,0,5,0.00
2014-7-4,79,64,53,61,55,51,97,75,43,30.22,30.00,3,0,3,0.00
2014-7-5,85,64,46,64,54,45,98,73,36,30.29,30.13,4,0,5,0.00
2014-7-6,82,68,54,64,58,53,96,74,43,30.14,29.97,7,0,7,0.00
2014-7-7,85,70,53,67,60,52,97,74,47,30.02,29.85,11,1,13,0.00
2014-7-8,84,71,62,69,65,59,97,82,56,29.95,29.82,13,1,14,0.45
2014-7-9,75,69,66,70,67,65,98,95,84,30.00,29.88,8,1,8,0.91
2014-7-10,86,71,63,74,66,62,98,86,59,30.07,29.97,3,0,3,0.08
2014-7-11,89,71,56,70,62,56,98,77,39,30.15,30.06,7,0,7,0.00
2014-7-12,87,73,61,72,66,60,98,80,53,30.16,30.03,5,0,6,0.00
2014-7-13,85,74,64,72,68,63,97,83,60,30.08,29.92,8,1,8,0.00
2014-7-14,84,72,65,74,68,64,98,89,67,29.95,29.81,8,0,8,0.55
2014-7-15,76,68,62,70,66,61,98,95,77,29.87,29.75,8,0,8,0.94
2014-7-16,74,63,54,63,57,52,98,81,49,29.98,29.84,0,0,0,0.01
2014-7-17,80,63,48,64,55,47,98,79,45,30.08,29.98,0,0,0,0.00
2014-7-18,65,62,58,64,61,57,97,96,92,30.16,30.07,3,0,3,0.23
2014-7-19,69,64,61,65,62,60,98,93,83,30.13,30.03,6,0,6,0.32
2014-7-20,78,68,60,70,64,58,97,89,73,30.06,29.97,4,0,4,0.03
2014-7-21,88,71,60,76,67,60,99,89,62,30.08,30.01,4,0,4,0.01
2014-7-22,87,73,63,75,67,62,98,84,58,30.12,29.99,3,0,3,0.00
2014-7-23,83,72,62,74,68,61,98,89,71,30.06,29.87,7,0,7,0.00
2014-7-24,82,70,64,72,67,63,98,92,65,29.96,29.81,9,0,9,0.19
2014-7-25,80,68,59,69,63,59,98,84,58,30.04,29.93,6,0,7,0.00
2014-7-26,82,70,58,69,63,57,98,82,54,30.02,29.89,3,0,7,0.00
2014-7-27,74,70,66,71,68,65,97,92,82,29.95,29.76,7,1,8,0.09
2014-7-28,74,67,58,66,62,56,97,83,65,29.90,29.78,8,1,8,0.00
2014-7-29,74,63,54,60,57,52,98,80,51,30.03,29.89,7,0,7,0.00
2014-7-30,80,61,46,62,53,45,98,79,40,30.10,30.02,3,0,3,0.00
2014-7-31,76,64,50,67,59,50,98,85,60,30.11,30.06,8,0,8,0.04
2014-8-1,77,66,60,67,62,58,97,87,66,30.10,30.01,3,0,5,0.04
2014-8-2,84,67,56,71,62,55,98,85,53,30.08,29.95,5,0,6,0.04
2014-8-3,82,66,57,67,60,55,98,83,52,30.09,30.02,4,0,4,0.00
2014-8-4,88,67,50,68,58,49,99,77,42,30.12,29.98,2,0,2,0.00
2014-8-5,83,69,57,70,62,56,97,81,54,30.05,29.94,6,0,7,0.00
2014-8-6,82,67,54,69,62,53,98,85,62,30.01,29.91,7,0,7,0.00
2014-8-7,87,70,61,70,62,59,98,81,43,30.00,29.92,4,0,4,0.00
2014-8-8,72,65,59,70,64,58,98,96,89,30.05,29.97,2,0,2,0.75
2014-8-9,78,68,64,73,67,63,99,95,84,30.03,29.94,0,0,0,0.06
2014-8-10,76,68,62,70,65,62,97,91,76,30.03,29.96,4,0,4,0.00
2014-8-11,83,69,66,75,68,65,98,95,71,30.00,29.85,3,0,3,0.63
2014-8-12,79,70,65,72,68,64,99,92,74,29.86,29.73,7,0,7,1.54
2014-8-13,70,63,55,65,59,54,99,90,73,30.03,29.84,4,0,4,0.01
2014-8-14,77,63,52,65,58,51,99,85,61,30.07,29.94,5,0,5,0.00
2014-8-15,77,66,57,68,62,56,98,86,63,30.02,29.92,7,0,7,0.01
2014-8-16,81,66,54,65,60,53,99,82,48,30.04,29.96,6,0,6,0.00
2014-8-17,78,69,62,70,65,60,98,88,70,30.01,29.91,5,0,5,0.00
2014-8-18,75,68,65,71,67,64,99,95,84,29.92,29.75,11,1,11,2.18
2014-8-19,82,71,64,72,68,64,99,91,68,29.87,29.78,6,0,7,0.01
2014-8-20,81,71,63,75,68,63,99,91,71,30.05,29.86,8,0,8,0.44
2014-8-21,82,71,62,73,67,61,98,90,69,30.10,30.00,6,0,6,0.03
2014-8-22,84,72,63,75,69,63,99,91,72,30.05,29.91,7,0,7,0.23
2014-8-23,88,74,67,76,70,66,99,89,64,29.98,29.84,4,0,4,0.19
2014-8-24,87,70,60,76,67,59,99,90,65,30.05,29.89,2,0,2,0.00
2014-8-25,86,67,55,71,61,54,99,85,53,30.09,30.01,2,0,2,0.00
2014-8-26,86,65,50,69,58,50,99,81,41,30.15,30.03,3,0,3,0.00
2014-8-27,88,70,50,70,61,50,99,77,42,30.12,29.97,2,0,3,0.00
2014-8-28,86,70,57,74,64,57,98,86,60,30.04,29.93,6,0,6,0.00
2014-8-29,94,71,61,79,68,60,99,89,54,30.07,29.96,9,0,9,0.85
2014-8-30,90,74,63,73,67,62,99,82,44,30.13,30.00,6,0,6,0.00
2014-8-31,82,73,66,73,69,66,98,89,69,30.09,29.99,5,0,5,0.17
2014-9-1,84,73,66,72,69,66,99,86,62,30.06,29.95,8,0,8,0.01
2014-9-2,86,75,62,74,69,62,98,83,61,30.04,29.86,7,1,7,0.60
2014-9-3,86,71,64,78,68,64,98,90,65,30.05,29.94,3,0,3,0.00
2014-9-4,86,70,64,76,68,63,99,94,64,30.11,30.03,4,0,5,0.16
2014-9-5,83,69,64,75,68,63,99,95,70,30.16,30.03,7,0,7,0.76
2014-9-6,83,71,64,76,69,64,99,92,73,30.06,29.89,3,0,4,0.02
2014-9-7,88,71,62,76,67,62,99,88,57,30.03,29.92,3,0,3,0.00
2014-9-8,79,67,60,70,64,59,97,90,71,30.09,29.99,1,0,3,0.01
2014-9-9,81,68,59,72,65,58,98,88,66,30.10,29.96,0,0,0,0.00
2014-9-10,82,69,60,70,64,59,99,86,62,30.05,29.91,5,0,6,0.00
2014-9-11,82,69,59,72,66,58,98,91,72,29.99,29.89,7,0,7,0.46
2014-9-12,78,70,67,73,69,66,99,94,80,30.03,29.94,2,0,2,0.09
2014-9-13,68,64,57,67,63,56,98,94,88,30.20,29.96,4,0,4,0.14
2014-9-14,69,61,53,64,58,52,98,92,76,30.22,30.15,5,0,5,0.00
2014-9-15,76,64,56,67,61,55,99,92,71,30.18,30.06,5,0,6,0.01
2014-9-16,73,65,59,67,62,58,98,93,76,30.08,29.93,5,0,5,0.08
2014-9-17,78,63,53,67,59,52,99,88,60,29.98,29.84,2,0,2,0.00
2014-9-18,72,60,51,64,56,50,99,89,55,30.04,29.91,2,0,2,0.00
2014-9-19,78,62,51,65,58,51,99,86,59,30.16,30.04,10,1,12,0.00
2014-9-20,84,65,54,68,59,53,99,82,47,30.18,29.96,6,0,6,0.00
2014-9-21,74,62,50,68,60,50,99,92,77,30.01,29.81,6,1,7,0.15
2014-9-22,67,56,47,57,51,46,99,86,59,30.22,29.93,3,0,3,0.01
2014-9-23,70,54,40,57,49,39,99,86,56,30.30,30.21,6,0,7,0.00
2014-9-24,78,58,46,58,52,45,97,83,45,30.35,30.25,2,0,2,0.01
2014-9-25,82,63,51,70,59,51,99,88,61,30.27,30.12,2,0,2,0.00
2014-9-26,82,63,54,70,59,53,99,88,59,30.21,30.09,1,0,1,0.00
2014-9-27,80,61,48,66,56,47,99,85,54,30.21,30.08,2,0,3,0.00
2014-9-28,76,60,48,65,56,47,99,87,54,30.19,30.06,3,0,3,0.00
2014-9-29,73,62,54,66,59,53,98,91,68,30.06,29.90,3,0,4,0.05